createdAt,value
2018-12-15T00:00:07.339Z,0.80
2018-12-15T00:02:35.556Z,0.70
2018-12-15T00:05:04.022Z,0.70
2018-12-15T00:07:32.233Z,0.70
2018-12-15T00:10:00.454Z,0.70
2018-12-15T00:12:28.694Z,0.70
2018-12-15T00:14:57.079Z,0.70
2018-12-15T00:17:25.335Z,0.70
2018-12-15T00:19:53.744Z,0.70
2018-12-15T00:22:21.941Z,0.70
2018-12-15T00:24:50.153Z,0.70
2018-12-15T00:27:18.486Z,0.70
2018-12-15T00:29:46.715Z,0.70
2018-12-15T00:32:15.098Z,0.80
2018-12-15T00:34:43.321Z,0.80
2018-12-15T00:37:11.505Z,0.70
2018-12-15T00:39:39.733Z,0.80
2018-12-15T00:42:07.921Z,0.80
2018-12-15T00:44:36.149Z,0.70
2018-12-15T00:47:04.477Z,0.70
2018-12-15T00:49:32.779Z,0.70
2018-12-15T00:52:00.973Z,0.70
2018-12-15T00:54:29.201Z,0.70
2018-12-15T00:56:57.389Z,0.70
2018-12-15T00:59:25.634Z,0.70
2018-12-15T01:01:53.905Z,0.70
2018-12-15T01:04:22.165Z,0.70
2018-12-15T01:06:50.490Z,0.70
2018-12-15T01:09:18.694Z,0.70
2018-12-15T01:11:46.938Z,0.70
2018-12-15T01:14:15.123Z,0.60
2018-12-15T01:16:43.377Z,0.60
2018-12-15T01:19:11.553Z,0.60
2018-12-15T01:21:39.761Z,0.60
2018-12-15T01:24:07.945Z,0.60
2018-12-15T01:26:36.145Z,0.60
2018-12-15T01:29:08.288Z,0.60
2018-12-15T01:31:36.515Z,0.60
2018-12-15T01:34:04.717Z,0.60
2018-12-15T01:36:32.917Z,0.60
2018-12-15T01:39:02.188Z,0.60
2018-12-15T01:41:30.404Z,0.60
2018-12-15T01:43:58.633Z,0.60
2018-12-15T01:46:26.846Z,0.60
2018-12-15T01:48:55.239Z,0.60
2018-12-15T01:51:23.567Z,0.60
2018-12-15T01:53:51.779Z,0.60
2018-12-15T01:56:20.145Z,0.60
2018-12-15T01:58:48.348Z,0.60
2018-12-15T02:01:16.650Z,0.50
2018-12-15T02:03:44.941Z,0.50
2018-12-15T02:06:19.641Z,0.50
2018-12-15T02:08:47.900Z,0.50
2018-12-15T02:11:16.337Z,0.50
2018-12-15T02:13:44.624Z,0.50
2018-12-15T02:16:12.821Z,0.50
2018-12-15T02:18:41.069Z,0.50
2018-12-15T02:21:09.255Z,0.50
2018-12-15T02:23:37.482Z,0.50
2018-12-15T02:26:05.777Z,0.50
2018-12-15T02:28:33.997Z,0.50
2018-12-15T02:31:02.216Z,0.50
2018-12-15T02:33:30.418Z,0.40
2018-12-15T02:35:58.610Z,0.40
2018-12-15T02:38:26.862Z,0.40
2018-12-15T02:40:55.060Z,0.40
2018-12-15T02:43:23.272Z,0.40
2018-12-15T02:45:51.460Z,0.40
2018-12-15T02:48:19.673Z,0.40
2018-12-15T02:50:47.870Z,0.40
2018-12-15T02:53:16.081Z,0.40
2018-12-15T02:55:44.368Z,0.40
2018-12-15T02:58:12.624Z,0.40
2018-12-15T03:00:40.856Z,0.40
2018-12-15T03:03:09.080Z,0.40
2018-12-15T03:05:37.312Z,0.40
2018-12-15T03:08:05.642Z,0.40
2018-12-15T03:10:33.937Z,0.40
2018-12-15T03:13:02.157Z,0.40
2018-12-15T03:15:30.388Z,0.30
2018-12-15T03:17:58.614Z,0.30
2018-12-15T03:20:26.912Z,0.40
2018-12-15T03:22:55.149Z,0.30
2018-12-15T03:25:23.503Z,0.30
2018-12-15T03:27:51.745Z,0.30
2018-12-15T03:30:20.039Z,0.40
2018-12-15T03:32:48.247Z,0.30
2018-12-15T03:35:16.458Z,0.40
2018-12-15T03:37:44.692Z,0.40
2018-12-15T03:40:13.273Z,0.40
2018-12-15T03:42:41.486Z,0.40
2018-12-15T03:45:09.805Z,0.50
2018-12-15T03:47:38.023Z,0.50
2018-12-15T03:50:07.006Z,0.50
2018-12-15T03:52:35.220Z,0.60
2018-12-15T03:55:03.493Z,0.50
2018-12-15T03:57:31.703Z,0.60
2018-12-15T03:59:59.919Z,0.50
2018-12-15T04:02:28.117Z,0.60
2018-12-15T04:04:56.585Z,0.50
2018-12-15T04:07:24.793Z,0.50
2018-12-15T04:09:53.001Z,0.50
2018-12-15T04:12:21.209Z,0.50
2018-12-15T04:14:49.462Z,0.50
2018-12-15T04:17:17.665Z,0.40
2018-12-15T04:19:45.903Z,0.40
2018-12-15T04:22:19.276Z,0.40
2018-12-15T04:24:47.633Z,0.40
2018-12-15T04:27:16.095Z,0.40
2018-12-15T04:29:44.395Z,0.50
2018-12-15T04:32:12.594Z,0.50
2018-12-15T04:34:40.882Z,0.50
2018-12-15T04:37:09.100Z,0.50
2018-12-15T04:39:37.330Z,0.50
2018-12-15T04:42:05.782Z,0.50
2018-12-15T04:44:34.000Z,0.40
2018-12-15T04:47:02.469Z,0.40
2018-12-15T04:49:30.706Z,0.40
2018-12-15T04:51:58.901Z,0.50
2018-12-15T04:54:27.141Z,0.50
2018-12-15T04:56:55.346Z,0.50
2018-12-15T04:59:23.538Z,0.50
2018-12-15T05:01:51.742Z,0.50
2018-12-15T05:04:19.997Z,0.50
2018-12-15T05:06:48.303Z,0.50
2018-12-15T05:09:16.506Z,0.50
2018-12-15T05:11:44.708Z,0.50
2018-12-15T05:14:12.933Z,0.50
2018-12-15T05:16:41.230Z,0.50
2018-12-15T05:19:09.437Z,0.50
2018-12-15T05:21:37.669Z,0.50
2018-12-15T05:24:05.890Z,0.50
2018-12-15T05:26:34.121Z,0.50
2018-12-15T05:29:02.331Z,0.50
2018-12-15T05:31:30.609Z,0.60
2018-12-15T05:33:58.816Z,0.60
2018-12-15T05:36:27.029Z,0.50
2018-12-15T05:38:55.282Z,0.40
2018-12-15T05:41:23.481Z,0.40
2018-12-15T05:43:51.669Z,0.40
2018-12-15T05:46:19.985Z,0.40
2018-12-15T05:48:48.202Z,0.40
2018-12-15T05:51:16.404Z,0.30
2018-12-15T05:53:44.677Z,0.30
2018-12-15T05:56:12.970Z,0.30
2018-12-15T05:58:41.189Z,0.30
2018-12-15T06:01:09.430Z,0.40
2018-12-15T06:03:37.625Z,0.40
2018-12-15T06:06:05.861Z,0.30
2018-12-15T06:08:34.084Z,0.30
2018-12-15T06:11:02.280Z,0.40
2018-12-15T06:13:30.508Z,0.40
2018-12-15T06:15:58.692Z,0.40
2018-12-15T06:18:31.680Z,0.40
2018-12-15T06:20:57.337Z,0.40
2018-12-15T06:23:25.556Z,0.50
2018-12-15T06:25:53.789Z,0.50
2018-12-15T06:28:22.081Z,0.50
2018-12-15T06:30:50.273Z,0.40
2018-12-15T06:33:18.485Z,0.40
2018-12-15T06:35:46.668Z,0.40
2018-12-15T06:38:14.881Z,0.40
2018-12-15T06:40:43.085Z,0.30
2018-12-15T06:43:11.300Z,0.30
2018-12-15T06:45:39.512Z,0.20
2018-12-15T06:48:07.808Z,0.20
2018-12-15T06:50:36.008Z,0.30
2018-12-15T06:53:04.217Z,0.30
2018-12-15T06:55:32.409Z,0.30
2018-12-15T06:58:00.624Z,0.40
2018-12-15T07:00:31.165Z,0.30
2018-12-15T07:02:59.517Z,0.30
2018-12-15T07:05:27.853Z,0.30
2018-12-15T07:07:56.160Z,0.40
2018-12-15T07:10:24.353Z,0.30
2018-12-15T07:12:52.586Z,0.30
2018-12-15T07:15:20.826Z,0.30
2018-12-15T07:17:49.043Z,0.30
2018-12-15T07:20:17.337Z,0.30
2018-12-15T07:22:45.533Z,0.30
2018-12-15T07:25:13.825Z,0.40
2018-12-15T07:27:42.093Z,0.30
2018-12-15T07:30:10.457Z,0.40
2018-12-15T07:32:38.648Z,0.40
2018-12-15T07:35:07.014Z,0.40
2018-12-15T07:37:35.217Z,0.50
2018-12-15T07:40:04.125Z,0.40
2018-12-15T07:42:32.357Z,0.40
2018-12-15T07:45:00.581Z,0.40
2018-12-15T07:47:28.796Z,0.50
2018-12-15T07:49:57.055Z,0.50
2018-12-15T07:52:25.268Z,0.50
2018-12-15T07:54:53.577Z,0.50
2018-12-15T07:57:21.773Z,0.50
2018-12-15T07:59:50.797Z,0.50
2018-12-15T08:02:19.159Z,0.60
2018-12-15T08:04:47.365Z,0.70
2018-12-15T08:07:15.693Z,0.70
2018-12-15T08:09:43.993Z,0.70
2018-12-15T08:12:17.550Z,0.70
2018-12-15T08:14:45.863Z,0.70
2018-12-15T08:17:14.077Z,0.80
2018-12-15T08:19:42.389Z,0.80
2018-12-15T08:22:10.638Z,0.90
2018-12-15T08:24:38.916Z,0.90
2018-12-15T08:27:07.178Z,1.00
2018-12-15T08:29:35.465Z,1.00
2018-12-15T08:32:03.765Z,1.00
2018-12-15T08:34:32.177Z,1.00
2018-12-15T08:37:00.640Z,1.00
2018-12-15T08:39:29.031Z,1.00
2018-12-15T08:41:57.349Z,1.10
2018-12-15T08:44:25.724Z,1.10
2018-12-15T08:46:53.961Z,1.10
2018-12-15T08:49:22.148Z,1.20
2018-12-15T08:51:50.373Z,1.30
2018-12-15T08:54:18.579Z,1.30
2018-12-15T08:56:46.883Z,1.30
2018-12-15T08:59:15.089Z,1.40
2018-12-15T09:01:43.318Z,1.40
2018-12-15T09:04:11.581Z,1.40
2018-12-15T09:06:39.832Z,1.40
2018-12-15T09:09:08.097Z,1.40
2018-12-15T09:11:36.342Z,1.50
2018-12-15T09:14:04.620Z,1.50
2018-12-15T09:16:32.808Z,1.60
2018-12-15T09:19:01.109Z,1.60
2018-12-15T09:21:29.634Z,1.60
2018-12-15T09:23:58.036Z,1.70
2018-12-15T09:26:26.312Z,1.70
2018-12-15T09:28:54.529Z,1.70
2018-12-15T09:31:22.742Z,1.80
2018-12-15T09:33:50.976Z,1.80
2018-12-15T09:36:19.184Z,1.80
2018-12-15T09:38:47.389Z,1.70
2018-12-15T09:41:15.597Z,1.70
2018-12-15T09:43:43.900Z,1.70
2018-12-15T09:46:12.281Z,1.70
2018-12-15T09:48:40.573Z,1.70
2018-12-15T09:51:08.813Z,1.60
2018-12-15T09:53:37.114Z,1.60
2018-12-15T09:56:05.477Z,1.50
2018-12-15T09:58:33.690Z,1.50
2018-12-15T10:01:01.887Z,1.50
2018-12-15T10:03:30.164Z,1.60
2018-12-15T10:05:58.354Z,1.60
2018-12-15T10:08:26.582Z,1.60
2018-12-15T10:10:54.821Z,1.60
2018-12-15T10:13:23.033Z,1.70
2018-12-15T10:15:51.236Z,1.70
2018-12-15T10:18:19.507Z,1.70
2018-12-15T10:20:47.698Z,1.70
2018-12-15T10:23:15.893Z,1.70
2018-12-15T10:25:44.092Z,1.70
2018-12-15T10:28:12.296Z,1.70
2018-12-15T10:30:46.006Z,1.70
2018-12-15T10:33:14.197Z,1.70
2018-12-15T10:35:42.409Z,1.70
2018-12-15T10:38:10.721Z,1.80
2018-12-15T10:40:38.921Z,1.80
2018-12-15T10:43:07.173Z,1.80
2018-12-15T10:45:35.373Z,1.80
2018-12-15T10:48:03.648Z,1.80
2018-12-15T10:50:31.957Z,1.90
2018-12-15T10:53:00.186Z,1.90
2018-12-15T10:55:28.417Z,1.90
2018-12-15T10:57:56.617Z,1.90
2018-12-15T11:00:29.152Z,1.90
2018-12-15T11:02:57.457Z,1.90
2018-12-15T11:05:25.777Z,1.90
2018-12-15T11:07:54.017Z,1.90
2018-12-15T11:10:22.306Z,1.90
2018-12-15T11:12:50.505Z,1.90
2018-12-15T11:15:18.722Z,2.00
2018-12-15T11:17:46.909Z,2.00
2018-12-15T11:20:15.180Z,1.90
2018-12-15T11:22:43.373Z,1.90
2018-12-15T11:25:11.701Z,1.90
2018-12-15T11:27:39.896Z,1.90
2018-12-15T11:30:08.313Z,1.90
2018-12-15T11:32:36.612Z,1.80
2018-12-15T11:35:05.210Z,1.80
2018-12-15T11:37:33.420Z,1.90
2018-12-15T11:40:01.690Z,1.90
2018-12-15T11:42:29.916Z,2.00
2018-12-15T11:44:58.240Z,2.00
2018-12-15T11:47:26.458Z,1.90
2018-12-15T11:50:00.006Z,1.90
2018-12-15T11:52:28.269Z,1.90
2018-12-15T11:54:56.456Z,1.90
2018-12-15T11:57:24.685Z,1.90
2018-12-15T11:59:52.929Z,2.00
2018-12-15T12:02:21.223Z,2.00
2018-12-15T12:04:49.437Z,2.10
2018-12-15T12:07:17.664Z,2.10
2018-12-15T12:09:45.873Z,2.10
2018-12-15T12:12:14.165Z,2.10
2018-12-15T12:14:42.477Z,2.20
2018-12-15T12:17:10.683Z,2.20
2018-12-15T12:19:38.902Z,2.20
2018-12-15T12:22:07.178Z,2.10
2018-12-15T12:24:35.392Z,2.00
2018-12-15T12:27:03.748Z,2.00
2018-12-15T12:29:31.941Z,2.00
2018-12-15T12:32:00.198Z,2.00
2018-12-15T12:34:28.407Z,2.00
2018-12-15T12:36:56.653Z,2.10
2018-12-15T12:39:24.862Z,2.10
2018-12-15T12:41:53.084Z,2.10
2018-12-15T12:44:21.330Z,2.10
2018-12-15T12:46:49.562Z,2.10
2018-12-15T12:49:17.763Z,2.20
2018-12-15T12:51:45.979Z,2.10
2018-12-15T12:54:14.240Z,2.20
2018-12-15T12:56:42.473Z,2.20
2018-12-15T12:59:10.692Z,2.30
2018-12-15T13:01:38.968Z,2.30
2018-12-15T13:04:07.176Z,2.30
2018-12-15T13:06:35.376Z,2.30
2018-12-15T13:09:05.937Z,2.30
2018-12-15T13:11:34.153Z,2.30
2018-12-15T13:14:02.513Z,2.30
2018-12-15T13:16:30.725Z,2.20
2018-12-15T13:18:58.936Z,2.30
2018-12-15T13:21:27.180Z,2.30
2018-12-15T13:23:55.445Z,2.30
2018-12-15T13:26:23.734Z,2.30
2018-12-15T13:28:51.961Z,2.30
2018-12-15T13:31:20.299Z,2.30
2018-12-15T13:33:48.613Z,2.30
2018-12-15T13:36:18.633Z,2.20
2018-12-15T13:38:47.025Z,2.20
2018-12-15T13:41:15.233Z,2.20
2018-12-15T13:43:43.508Z,2.10
2018-12-15T13:46:11.858Z,2.10
2018-12-15T13:48:40.101Z,2.10
2018-12-15T13:51:08.395Z,2.00
2018-12-15T13:53:36.670Z,1.90
2018-12-15T13:56:05.019Z,1.80
2018-12-15T13:58:33.252Z,1.80
2018-12-15T14:01:01.439Z,1.70
2018-12-15T14:03:29.671Z,1.60
2018-12-15T14:05:57.873Z,1.60
2018-12-15T14:08:26.149Z,1.50
2018-12-15T14:10:54.349Z,1.50
2018-12-15T14:13:22.603Z,1.40
2018-12-15T14:15:50.944Z,1.30
2018-12-15T14:18:19.153Z,1.30
2018-12-15T14:20:47.474Z,1.20
2018-12-15T14:23:15.758Z,1.10
2018-12-15T14:25:43.978Z,1.00
2018-12-15T14:28:12.160Z,0.90
2018-12-15T14:30:40.373Z,0.80
2018-12-15T14:33:08.575Z,0.70
2018-12-15T14:35:36.824Z,0.60
2018-12-15T14:38:05.049Z,0.60
2018-12-15T14:40:33.280Z,0.60
2018-12-15T14:43:01.489Z,0.70
2018-12-15T14:45:29.813Z,0.80
2018-12-15T14:47:58.012Z,0.70
2018-12-15T14:50:26.261Z,0.70
2018-12-15T14:52:54.469Z,0.70
2018-12-15T14:55:22.744Z,0.70
2018-12-15T14:57:50.958Z,0.70
2018-12-15T15:00:19.168Z,0.80
2018-12-15T15:02:47.555Z,0.80
2018-12-15T15:05:15.871Z,0.90
2018-12-15T15:07:44.093Z,0.90
2018-12-15T15:10:12.370Z,0.90
2018-12-15T15:12:40.613Z,0.90
2018-12-15T15:15:08.965Z,0.90
2018-12-15T15:17:38.449Z,0.90
2018-12-15T15:20:08.953Z,0.90
2018-12-15T15:22:37.173Z,0.90
2018-12-15T15:25:05.777Z,0.90
2018-12-15T15:27:33.986Z,0.90
2018-12-15T15:30:02.328Z,0.90
2018-12-15T15:32:30.612Z,0.90
2018-12-15T15:34:59.710Z,0.90
2018-12-15T15:37:27.980Z,0.80
2018-12-15T15:39:56.197Z,0.90
2018-12-15T15:42:24.561Z,0.90
2018-12-15T15:44:52.826Z,0.90
2018-12-15T15:47:21.048Z,0.90
2018-12-15T15:49:49.228Z,0.80
2018-12-15T15:52:17.487Z,0.80
2018-12-15T15:54:45.914Z,0.80
2018-12-15T15:57:14.106Z,0.80
2018-12-15T15:59:42.361Z,0.80
2018-12-15T16:02:10.710Z,0.80
2018-12-15T16:04:38.913Z,0.90
2018-12-15T16:07:07.265Z,0.90
2018-12-15T16:09:35.533Z,0.90
2018-12-15T16:12:05.195Z,0.90
2018-12-15T16:14:33.493Z,0.90
2018-12-15T16:17:01.718Z,0.90
2018-12-15T16:19:29.932Z,0.90
2018-12-15T16:21:58.238Z,0.90
2018-12-15T16:24:26.447Z,0.80
2018-12-15T16:26:54.987Z,0.80
2018-12-15T16:29:23.268Z,0.80
2018-12-15T16:31:52.383Z,0.80
2018-12-15T16:34:20.577Z,0.70
2018-12-15T16:36:48.932Z,0.80
2018-12-15T16:39:17.219Z,0.80
2018-12-15T16:41:45.618Z,0.70
2018-12-15T16:44:13.817Z,0.70
2018-12-15T16:46:42.109Z,0.70
2018-12-15T16:49:10.421Z,0.80
2018-12-15T16:51:38.648Z,0.70
2018-12-15T16:54:06.885Z,0.70
2018-12-15T16:56:35.114Z,0.80
2018-12-15T16:59:03.452Z,0.80
2018-12-15T17:01:31.855Z,0.80
2018-12-15T17:04:00.305Z,0.90
2018-12-15T17:06:28.550Z,0.80
2018-12-15T17:08:56.754Z,0.90
2018-12-15T17:11:24.946Z,0.90
2018-12-15T17:13:53.163Z,0.90
2018-12-15T17:16:21.366Z,0.90
2018-12-15T17:18:49.589Z,0.80
2018-12-15T17:21:17.906Z,0.90
2018-12-15T17:23:46.250Z,0.90
2018-12-15T17:26:14.568Z,0.90
2018-12-15T17:28:42.861Z,0.90
2018-12-15T17:31:11.134Z,0.90
2018-12-15T17:33:39.422Z,0.90
2018-12-15T17:36:07.708Z,0.80
2018-12-15T17:38:35.917Z,0.80
2018-12-15T17:41:04.233Z,0.80
2018-12-15T17:43:32.444Z,0.80
2018-12-15T17:46:00.653Z,0.90
2018-12-15T17:48:28.867Z,0.90
2018-12-15T17:51:03.050Z,0.90
2018-12-15T17:53:27.582Z,0.90
2018-12-15T17:55:55.796Z,0.90
2018-12-15T17:58:24.037Z,0.80
2018-12-15T18:00:52.351Z,0.80
2018-12-15T18:03:20.628Z,0.80
2018-12-15T18:05:48.841Z,0.80
2018-12-15T18:08:17.153Z,0.70
2018-12-15T18:10:45.437Z,0.70
2018-12-15T18:13:13.657Z,0.70
2018-12-15T18:15:41.871Z,0.70
2018-12-15T18:18:10.110Z,0.70
2018-12-15T18:20:38.385Z,0.60
2018-12-15T18:23:06.749Z,0.60
2018-12-15T18:25:35.034Z,0.60
2018-12-15T18:28:03.377Z,0.60
2018-12-15T18:30:31.642Z,0.50
2018-12-15T18:33:00.052Z,0.50
2018-12-15T18:35:28.267Z,0.50
2018-12-15T18:37:56.593Z,0.50
2018-12-15T18:40:24.899Z,0.50
2018-12-15T18:42:53.209Z,0.40
2018-12-15T18:45:21.488Z,0.40
2018-12-15T18:47:49.763Z,0.40
2018-12-15T18:50:18.026Z,0.30
2018-12-15T18:52:46.257Z,0.40
2018-12-15T18:55:14.586Z,0.40
2018-12-15T18:57:42.909Z,0.50
2018-12-15T19:00:12.062Z,0.50
2018-12-15T19:02:40.292Z,0.50
2018-12-15T19:05:08.733Z,0.50
2018-12-15T19:07:37.032Z,0.40
2018-12-15T19:10:06.206Z,0.40
2018-12-15T19:12:34.737Z,0.40
2018-12-15T19:15:03.043Z,0.40
2018-12-15T19:17:31.272Z,0.40
2018-12-15T19:20:00.518Z,0.40
2018-12-15T19:22:28.859Z,0.40
2018-12-15T19:24:57.212Z,0.50
2018-12-15T19:27:25.635Z,0.50
2018-12-15T19:29:53.857Z,0.50
2018-12-15T19:32:22.405Z,0.50
2018-12-15T19:34:52.489Z,0.50
2018-12-15T19:37:20.977Z,0.50
2018-12-15T19:39:49.360Z,0.50
2018-12-15T19:42:17.571Z,0.60
2018-12-15T19:44:45.776Z,0.50
2018-12-15T19:47:14.001Z,0.50
2018-12-15T19:49:42.216Z,0.50
2018-12-15T19:52:10.533Z,0.50
2018-12-15T19:54:38.758Z,0.50
2018-12-15T19:57:07.014Z,0.50
2018-12-15T19:59:35.281Z,0.50
2018-12-15T20:02:03.636Z,0.50
2018-12-15T20:04:31.885Z,0.50
2018-12-15T20:07:00.142Z,0.50
2018-12-15T20:09:28.682Z,0.50
2018-12-15T20:11:56.944Z,0.50
2018-12-15T20:14:25.166Z,0.50
2018-12-15T20:16:53.407Z,0.50
2018-12-15T20:19:21.609Z,0.50
2018-12-15T20:21:49.863Z,0.50
2018-12-15T20:24:18.159Z,0.50
2018-12-15T20:26:46.797Z,0.50
2018-12-15T20:29:15.306Z,0.50
2018-12-15T20:31:43.493Z,0.50
2018-12-15T20:34:11.805Z,0.50
2018-12-15T20:36:39.997Z,0.50
2018-12-15T20:39:08.301Z,0.50
2018-12-15T20:41:36.520Z,0.50
2018-12-15T20:44:04.885Z,0.50
2018-12-15T20:46:33.196Z,0.50
2018-12-15T20:49:01.499Z,0.50
2018-12-15T20:51:29.775Z,0.50
2018-12-15T20:53:58.226Z,0.50
2018-12-15T20:56:27.015Z,0.50
2018-12-15T20:58:55.248Z,0.50
2018-12-15T21:01:23.574Z,0.50
2018-12-15T21:03:51.881Z,0.50
2018-12-15T21:06:20.349Z,0.50
2018-12-15T21:08:48.596Z,0.50
2018-12-15T21:11:16.903Z,0.50
2018-12-15T21:13:45.265Z,0.50
2018-12-15T21:16:13.634Z,0.50
2018-12-15T21:18:41.946Z,0.50
2018-12-15T21:21:10.259Z,0.50
2018-12-15T21:23:38.578Z,0.50
2018-12-15T21:26:06.839Z,0.50
2018-12-15T21:28:35.183Z,0.50
2018-12-15T21:31:03.549Z,0.50
2018-12-15T21:33:31.778Z,0.50
2018-12-15T21:36:00.036Z,0.50
2018-12-15T21:38:28.345Z,0.60
2018-12-15T21:40:56.656Z,0.60
2018-12-15T21:43:25.101Z,0.60
2018-12-15T21:45:53.313Z,0.60
2018-12-15T21:48:21.512Z,0.60
2018-12-15T21:50:49.710Z,0.60
2018-12-15T21:53:18.025Z,0.60
2018-12-15T21:55:46.360Z,0.60
2018-12-15T21:58:14.654Z,0.60
2018-12-15T22:00:42.865Z,0.70
2018-12-15T22:03:11.085Z,0.60
2018-12-15T22:05:39.394Z,0.60
2018-12-15T22:08:07.609Z,0.60
2018-12-15T22:10:36.206Z,0.60
2018-12-15T22:13:05.012Z,0.60
2018-12-15T22:15:33.228Z,0.60
2018-12-15T22:18:01.432Z,0.60
2018-12-15T22:20:29.882Z,0.60
2018-12-15T22:22:58.085Z,0.60
2018-12-15T22:25:26.301Z,0.60
2018-12-15T22:27:54.482Z,0.60
2018-12-15T22:30:22.689Z,0.60
2018-12-15T22:32:50.902Z,0.70
2018-12-15T22:35:19.132Z,0.60
2018-12-15T22:37:47.401Z,0.70
2018-12-15T22:40:15.613Z,0.70
2018-12-15T22:42:43.791Z,0.70
2018-12-15T22:45:12.108Z,0.70
2018-12-15T22:47:40.449Z,0.70
2018-12-15T22:50:08.963Z,0.70
2018-12-15T22:52:37.212Z,0.70
2018-12-15T22:55:05.761Z,0.70
2018-12-15T22:57:33.984Z,0.80
2018-12-15T23:00:02.257Z,0.80
2018-12-15T23:02:30.539Z,0.80
2018-12-15T23:04:58.822Z,0.80
2018-12-15T23:07:27.121Z,0.80
2018-12-15T23:09:55.416Z,0.80
2018-12-15T23:12:23.632Z,0.80
2018-12-15T23:14:51.928Z,0.80
2018-12-15T23:17:20.212Z,0.80
2018-12-15T23:19:48.420Z,0.80
2018-12-15T23:22:16.616Z,0.80
2018-12-15T23:24:44.869Z,0.80
2018-12-15T23:27:13.275Z,0.80
2018-12-15T23:29:41.486Z,0.90
2018-12-15T23:32:09.708Z,0.90
2018-12-15T23:34:37.913Z,0.90
2018-12-15T23:37:06.216Z,0.80
2018-12-15T23:39:34.429Z,0.80
2018-12-15T23:42:02.749Z,0.80
2018-12-15T23:44:31.035Z,0.80
2018-12-15T23:46:59.254Z,0.80
2018-12-15T23:49:27.542Z,0.80
2018-12-15T23:51:55.760Z,0.80
2018-12-15T23:54:23.953Z,0.80
2018-12-15T23:56:52.241Z,0.80
2018-12-15T23:59:20.460Z,0.80
